sensor_id;sensor_type;location;lat;lon;timestamp;temperature;humidity
19342;DHT22;9807;48.258;12.690;2023-03-02T00:02:25;6.90;99.90
19342;DHT22;9807;48.258;12.690;2023-03-02T00:04:56;7.00;99.90
19342;DHT22;9807;48.258;12.690;2023-03-02T00:07:29;6.90;99.90
19342;DHT22;9807;48.258;12.690;2023-03-02T00:09:57;6.90;99.90
19342;DHT22;9807;48.258;12.690;2023-03-02T00:12:25;6.80;99.90
19342;DHT22;9807;48.258;12.690;2023-03-02T00:14:51;6.90;99.90
19342;DHT22;9807;48.258;12.690;2023-03-02T00:17:17;6.80;99.90
19342;DHT22;9807;48.258;12.690;2023-03-02T00:19:46;6.90;99.90
19342;DHT22;9807;48.258;12.690;2023-03-02T00:22:11;6.70;99.90
19342;DHT22;9807;48.258;12.690;2023-03-02T00:24:37;6.70;99.90
19342;DHT22;9807;48.258;12.690;2023-03-02T00:27:03;6.70;99.90
19342;DHT22;9807;48.258;12.690;2023-03-02T00:29:29;6.80;99.90
19342;DHT22;9807;48.258;12.690;2023-03-02T00:31:55;6.70;99.90
19342;DHT22;9807;48.258;12.690;2023-03-02T00:34:20;6.80;99.90
19342;DHT22;9807;48.258;12.690;2023-03-02T00:36:46;6.80;99.90
19342;DHT22;9807;48.258;12.690;2023-03-02T00:39:14;6.80;99.90
19342;DHT22;9807;48.258;12.690;2023-03-02T00:41:39;6.80;99.90
19342;DHT22;9807;48.258;12.690;2023-03-02T00:44:05;6.70;99.90
19342;DHT22;9807;48.258;12.690;2023-03-02T00:46:35;6.90;99.90
19342;DHT22;9807;48.258;12.690;2023-03-02T00:49:01;6.90;99.90
19342;DHT22;9807;48.258;12.690;2023-03-02T00:51:29;7.00;99.90
19342;DHT22;9807;48.258;12.690;2023-03-02T00:53:55;6.90;99.90
19342;DHT22;9807;48.258;12.690;2023-03-02T00:56:21;6.80;99.90
19342;DHT22;9807;48.258;12.690;2023-03-02T00:58:46;6.70;99.90
19342;DHT22;9807;48.258;12.690;2023-03-02T01:01:12;6.70;99.90
19342;DHT22;9807;48.258;12.690;2023-03-02T01:03:38;6.70;99.90
19342;DHT22;9807;48.258;12.690;2023-03-02T01:06:05;6.60;99.90
19342;DHT22;9807;48.258;12.690;2023-03-02T01:08:31;6.70;99.90
19342;DHT22;9807;48.258;12.690;2023-03-02T01:10:56;6.60;99.90
19342;DHT22;9807;48.258;12.690;2023-03-02T01:13:25;6.60;99.90
19342;DHT22;9807;48.258;12.690;2023-03-02T01:16:02;6.70;99.90
19342;DHT22;9807;48.258;12.690;2023-03-02T01:18:27;6.80;99.90
19342;DHT22;9807;48.258;12.690;2023-03-02T01:21:04;6.80;99.90
19342;DHT22;9807;48.258;12.690;2023-03-02T01:23:30;6.70;99.90
19342;DHT22;9807;48.258;12.690;2023-03-02T01:25:56;6.60;99.90
19342;DHT22;9807;48.258;12.690;2023-03-02T01:28:21;6.60;99.90
19342;DHT22;9807;48.258;12.690;2023-03-02T01:30:47;6.50;99.90
19342;DHT22;9807;48.258;12.690;2023-03-02T01:33:13;6.60;99.90
19342;DHT22;9807;48.258;12.690;2023-03-02T01:35:39;6.70;99.90
19342;DHT22;9807;48.258;12.690;2023-03-02T01:38:05;6.50;99.90
19342;DHT22;9807;48.258;12.690;2023-03-02T01:40:31;6.60;99.90
19342;DHT22;9807;48.258;12.690;2023-03-02T01:42:59;6.50;99.90
19342;DHT22;9807;48.258;12.690;2023-03-02T01:48:19;6.60;99.90
19342;DHT22;9807;48.258;12.690;2023-03-02T01:50:47;6.60;99.90
19342;DHT22;9807;48.258;12.690;2023-03-02T01:53:14;6.60;99.90
19342;DHT22;9807;48.258;12.690;2023-03-02T01:55:40;6.70;99.90
19342;DHT22;9807;48.258;12.690;2023-03-02T01:58:09;6.70;99.90
19342;DHT22;9807;48.258;12.690;2023-03-02T02:00:37;6.60;99.90
19342;DHT22;9807;48.258;12.690;2023-03-02T02:03:09;6.60;99.90
19342;DHT22;9807;48.258;12.690;2023-03-02T02:05:39;6.60;99.90
19342;DHT22;9807;48.258;12.690;2023-03-02T02:08:07;6.70;99.90
19342;DHT22;9807;48.258;12.690;2023-03-02T02:10:33;6.60;99.90
19342;DHT22;9807;48.258;12.690;2023-03-02T02:13:00;6.60;99.90
19342;DHT22;9807;48.258;12.690;2023-03-02T02:15:26;6.50;99.90
19342;DHT22;9807;48.258;12.690;2023-03-02T02:17:52;6.70;99.90
19342;DHT22;9807;48.258;12.690;2023-03-02T02:20:29;6.70;99.90
19342;DHT22;9807;48.258;12.690;2023-03-02T02:28:38;6.70;99.90
19342;DHT22;9807;48.258;12.690;2023-03-02T02:33:40;6.60;99.90
19342;DHT22;9807;48.258;12.690;2023-03-02T02:36:36;6.70;99.90
19342;DHT22;9807;48.258;12.690;2023-03-02T02:39:03;6.70;99.90
19342;DHT22;9807;48.258;12.690;2023-03-02T02:41:34;6.70;99.90
19342;DHT22;9807;48.258;12.690;2023-03-02T02:44:01;6.50;99.90
19342;DHT22;9807;48.258;12.690;2023-03-02T02:46:27;6.50;99.90
19342;DHT22;9807;48.258;12.690;2023-03-02T02:48:55;6.60;99.90
19342;DHT22;9807;48.258;12.690;2023-03-02T02:51:25;6.70;99.90
19342;DHT22;9807;48.258;12.690;2023-03-02T02:53:56;6.70;99.90
19342;DHT22;9807;48.258;12.690;2023-03-02T02:56:32;6.70;99.90
19342;DHT22;9807;48.258;12.690;2023-03-02T02:59:03;6.60;99.90
19342;DHT22;9807;48.258;12.690;2023-03-02T03:01:32;6.70;99.90
19342;DHT22;9807;48.258;12.690;2023-03-02T03:04:04;6.80;99.90
19342;DHT22;9807;48.258;12.690;2023-03-02T03:06:33;6.80;99.90
19342;DHT22;9807;48.258;12.690;2023-03-02T03:09:10;6.60;99.90
19342;DHT22;9807;48.258;12.690;2023-03-02T03:11:39;6.70;99.90
19342;DHT22;9807;48.258;12.690;2023-03-02T03:14:15;6.90;99.90
19342;DHT22;9807;48.258;12.690;2023-03-02T03:16:46;6.80;99.90
19342;DHT22;9807;48.258;12.690;2023-03-02T03:19:19;6.80;99.90
19342;DHT22;9807;48.258;12.690;2023-03-02T03:21:48;6.80;99.90
19342;DHT22;9807;48.258;12.690;2023-03-02T03:24:15;6.70;99.90
19342;DHT22;9807;48.258;12.690;2023-03-02T03:26:41;6.80;99.90
19342;DHT22;9807;48.258;12.690;2023-03-02T03:29:07;6.80;99.90
19342;DHT22;9807;48.258;12.690;2023-03-02T03:31:33;6.80;99.90
19342;DHT22;9807;48.258;12.690;2023-03-02T03:34:00;6.70;99.90
19342;DHT22;9807;48.258;12.690;2023-03-02T03:36:28;6.90;99.90
19342;DHT22;9807;48.258;12.690;2023-03-02T03:38:55;6.90;99.90
19342;DHT22;9807;48.258;12.690;2023-03-02T03:41:23;6.80;99.90
19342;DHT22;9807;48.258;12.690;2023-03-02T03:43:50;6.70;99.90
19342;DHT22;9807;48.258;12.690;2023-03-02T03:46:19;6.70;99.90
19342;DHT22;9807;48.258;12.690;2023-03-02T03:48:44;6.60;99.90
19342;DHT22;9807;48.258;12.690;2023-03-02T03:51:13;6.70;99.90
19342;DHT22;9807;48.258;12.690;2023-03-02T03:53:42;6.60;99.90
19342;DHT22;9807;48.258;12.690;2023-03-02T03:56:07;6.80;99.90
19342;DHT22;9807;48.258;12.690;2023-03-02T03:58:33;6.90;99.90
19342;DHT22;9807;48.258;12.690;2023-03-02T04:01:03;6.90;99.90
19342;DHT22;9807;48.258;12.690;2023-03-02T04:03:30;6.80;99.90
19342;DHT22;9807;48.258;12.690;2023-03-02T04:05:56;6.80;99.90
19342;DHT22;9807;48.258;12.690;2023-03-02T04:08:21;6.80;99.90
19342;DHT22;9807;48.258;12.690;2023-03-02T04:10:47;6.70;99.90
19342;DHT22;9807;48.258;12.690;2023-03-02T04:13:13;6.60;99.90
19342;DHT22;9807;48.258;12.690;2023-03-02T04:15:39;6.60;99.90
19342;DHT22;9807;48.258;12.690;2023-03-02T04:18:06;6.60;99.90
19342;DHT22;9807;48.258;12.690;2023-03-02T04:20:32;6.70;99.90
19342;DHT22;9807;48.258;12.690;2023-03-02T04:22:58;6.60;99.90
19342;DHT22;9807;48.258;12.690;2023-03-02T04:25:25;6.70;99.90
19342;DHT22;9807;48.258;12.690;2023-03-02T04:27:52;6.60;99.90
19342;DHT22;9807;48.258;12.690;2023-03-02T04:30:23;6.40;99.90
19342;DHT22;9807;48.258;12.690;2023-03-02T04:32:49;6.60;99.90
19342;DHT22;9807;48.258;12.690;2023-03-02T04:35:15;6.40;99.90
19342;DHT22;9807;48.258;12.690;2023-03-02T04:37:42;6.60;99.90
19342;DHT22;9807;48.258;12.690;2023-03-02T04:40:08;6.80;99.90
19342;DHT22;9807;48.258;12.690;2023-03-02T04:42:35;6.70;99.90
19342;DHT22;9807;48.258;12.690;2023-03-02T04:45:04;6.80;99.90
19342;DHT22;9807;48.258;12.690;2023-03-02T04:47:30;6.60;99.90
19342;DHT22;9807;48.258;12.690;2023-03-02T04:49:56;6.70;99.90
19342;DHT22;9807;48.258;12.690;2023-03-02T04:52:22;6.80;99.90
19342;DHT22;9807;48.258;12.690;2023-03-02T04:54:49;6.70;99.90
19342;DHT22;9807;48.258;12.690;2023-03-02T04:57:15;6.70;99.90
19342;DHT22;9807;48.258;12.690;2023-03-02T04:59:41;6.70;99.90
19342;DHT22;9807;48.258;12.690;2023-03-02T05:02:06;6.70;99.90
19342;DHT22;9807;48.258;12.690;2023-03-02T05:04:32;6.80;99.90
19342;DHT22;9807;48.258;12.690;2023-03-02T05:06:59;6.70;99.90
19342;DHT22;9807;48.258;12.690;2023-03-02T05:09:25;6.60;99.90
19342;DHT22;9807;48.258;12.690;2023-03-02T05:11:57;6.80;99.90
19342;DHT22;9807;48.258;12.690;2023-03-02T05:14:24;6.70;99.90
19342;DHT22;9807;48.258;12.690;2023-03-02T05:16:50;6.70;99.90
19342;DHT22;9807;48.258;12.690;2023-03-02T05:19:17;6.80;99.90
19342;DHT22;9807;48.258;12.690;2023-03-02T05:21:43;6.90;99.90
19342;DHT22;9807;48.258;12.690;2023-03-02T05:24:10;7.00;99.90
19342;DHT22;9807;48.258;12.690;2023-03-02T05:26:36;7.10;99.90
19342;DHT22;9807;48.258;12.690;2023-03-02T05:29:03;6.90;99.90
19342;DHT22;9807;48.258;12.690;2023-03-02T05:31:38;6.80;99.90
19342;DHT22;9807;48.258;12.690;2023-03-02T05:34:05;6.80;99.90
19342;DHT22;9807;48.258;12.690;2023-03-02T05:36:32;6.80;99.90
19342;DHT22;9807;48.258;12.690;2023-03-02T05:38:58;6.80;99.90
19342;DHT22;9807;48.258;12.690;2023-03-02T05:41:24;6.90;99.90
19342;DHT22;9807;48.258;12.690;2023-03-02T05:43:50;6.90;99.90
19342;DHT22;9807;48.258;12.690;2023-03-02T05:46:19;6.90;99.90
19342;DHT22;9807;48.258;12.690;2023-03-02T05:48:44;6.90;99.90
19342;DHT22;9807;48.258;12.690;2023-03-02T05:51:16;7.10;99.90
19342;DHT22;9807;48.258;12.690;2023-03-02T05:53:42;7.10;99.90
19342;DHT22;9807;48.258;12.690;2023-03-02T05:56:08;7.20;99.90
19342;DHT22;9807;48.258;12.690;2023-03-02T05:58:38;7.20;99.90
19342;DHT22;9807;48.258;12.690;2023-03-02T06:01:08;7.10;99.90
19342;DHT22;9807;48.258;12.690;2023-03-02T06:03:35;7.20;99.90
19342;DHT22;9807;48.258;12.690;2023-03-02T06:06:01;7.00;99.90
19342;DHT22;9807;48.258;12.690;2023-03-02T06:08:30;7.00;99.90
19342;DHT22;9807;48.258;12.690;2023-03-02T06:10:59;7.00;99.90
19342;DHT22;9807;48.258;12.690;2023-03-02T06:13:25;7.00;99.90
19342;DHT22;9807;48.258;12.690;2023-03-02T06:15:51;7.10;99.90
19342;DHT22;9807;48.258;12.690;2023-03-02T06:18:17;7.00;99.90
19342;DHT22;9807;48.258;12.690;2023-03-02T06:20:43;7.30;99.90
19342;DHT22;9807;48.258;12.690;2023-03-02T06:23:09;7.10;99.90
19342;DHT22;9807;48.258;12.690;2023-03-02T06:25:37;7.10;99.90
19342;DHT22;9807;48.258;12.690;2023-03-02T06:28:05;7.00;99.90
19342;DHT22;9807;48.258;12.690;2023-03-02T06:30:31;7.20;99.90
19342;DHT22;9807;48.258;12.690;2023-03-02T06:32:57;7.20;99.90
19342;DHT22;9807;48.258;12.690;2023-03-02T06:35:24;7.20;99.90
19342;DHT22;9807;48.258;12.690;2023-03-02T06:37:50;7.00;99.90
19342;DHT22;9807;48.258;12.690;2023-03-02T06:40:16;7.30;99.90
19342;DHT22;9807;48.258;12.690;2023-03-02T06:42:44;7.20;99.90
19342;DHT22;9807;48.258;12.690;2023-03-02T06:45:10;7.30;99.90
19342;DHT22;9807;48.258;12.690;2023-03-02T06:47:36;7.30;99.90
19342;DHT22;9807;48.258;12.690;2023-03-02T06:50:03;7.30;99.90
19342;DHT22;9807;48.258;12.690;2023-03-02T06:52:29;7.30;99.90
19342;DHT22;9807;48.258;12.690;2023-03-02T06:54:55;7.40;99.90
19342;DHT22;9807;48.258;12.690;2023-03-02T06:57:21;7.40;99.90
19342;DHT22;9807;48.258;12.690;2023-03-02T06:59:47;7.60;99.90
19342;DHT22;9807;48.258;12.690;2023-03-02T07:02:13;7.70;99.90
19342;DHT22;9807;48.258;12.690;2023-03-02T07:04:39;7.70;99.90
19342;DHT22;9807;48.258;12.690;2023-03-02T07:07:05;7.90;99.90
19342;DHT22;9807;48.258;12.690;2023-03-02T07:09:34;7.90;99.90
19342;DHT22;9807;48.258;12.690;2023-03-02T07:12:00;7.90;99.90
19342;DHT22;9807;48.258;12.690;2023-03-02T07:14:28;8.00;99.90
19342;DHT22;9807;48.258;12.690;2023-03-02T07:16:54;8.10;99.90
19342;DHT22;9807;48.258;12.690;2023-03-02T07:19:21;8.00;99.90
19342;DHT22;9807;48.258;12.690;2023-03-02T07:21:48;8.20;99.90
19342;DHT22;9807;48.258;12.690;2023-03-02T07:24:13;8.40;99.90
19342;DHT22;9807;48.258;12.690;2023-03-02T07:26:39;8.40;99.90
19342;DHT22;9807;48.258;12.690;2023-03-02T07:29:05;8.50;99.90
19342;DHT22;9807;48.258;12.690;2023-03-02T07:31:31;8.60;99.90
19342;DHT22;9807;48.258;12.690;2023-03-02T07:33:57;8.60;99.90
19342;DHT22;9807;48.258;12.690;2023-03-02T07:36:22;8.70;99.90
19342;DHT22;9807;48.258;12.690;2023-03-02T07:38:48;8.80;99.90
19342;DHT22;9807;48.258;12.690;2023-03-02T07:41:14;8.90;99.90
19342;DHT22;9807;48.258;12.690;2023-03-02T07:43:41;8.90;99.90
19342;DHT22;9807;48.258;12.690;2023-03-02T07:46:07;9.00;99.90
19342;DHT22;9807;48.258;12.690;2023-03-02T07:48:35;9.10;99.90
19342;DHT22;9807;48.258;12.690;2023-03-02T07:51:05;9.20;99.90
19342;DHT22;9807;48.258;12.690;2023-03-02T07:53:31;9.20;99.90
19342;DHT22;9807;48.258;12.690;2023-03-02T07:55:57;9.10;99.90
19342;DHT22;9807;48.258;12.690;2023-03-02T07:58:25;9.30;99.90
19342;DHT22;9807;48.258;12.690;2023-03-02T08:00:51;9.50;99.90
19342;DHT22;9807;48.258;12.690;2023-03-02T08:03:16;9.50;99.90
19342;DHT22;9807;48.258;12.690;2023-03-02T08:05:42;9.40;99.90
19342;DHT22;9807;48.258;12.690;2023-03-02T08:08:08;9.50;99.90
19342;DHT22;9807;48.258;12.690;2023-03-02T08:10:39;9.50;99.90
19342;DHT22;9807;48.258;12.690;2023-03-02T08:13:05;9.60;99.90
19342;DHT22;9807;48.258;12.690;2023-03-02T08:15:31;9.70;99.90
19342;DHT22;9807;48.258;12.690;2023-03-02T08:17:56;9.70;99.90
19342;DHT22;9807;48.258;12.690;2023-03-02T08:20:23;9.50;99.90
19342;DHT22;9807;48.258;12.690;2023-03-02T08:22:49;9.60;99.90
19342;DHT22;9807;48.258;12.690;2023-03-02T08:25:16;9.60;99.90
19342;DHT22;9807;48.258;12.690;2023-03-02T08:27:45;9.60;99.90
19342;DHT22;9807;48.258;12.690;2023-03-02T08:30:12;9.40;99.90
19342;DHT22;9807;48.258;12.690;2023-03-02T08:32:38;9.30;99.90
19342;DHT22;9807;48.258;12.690;2023-03-02T08:35:05;9.30;99.90
19342;DHT22;9807;48.258;12.690;2023-03-02T08:37:31;9.30;99.90
19342;DHT22;9807;48.258;12.690;2023-03-02T08:39:56;9.30;99.90
19342;DHT22;9807;48.258;12.690;2023-03-02T08:42:22;9.50;99.90
19342;DHT22;9807;48.258;12.690;2023-03-02T08:44:48;9.50;99.90
19342;DHT22;9807;48.258;12.690;2023-03-02T08:47:14;9.50;99.90
19342;DHT22;9807;48.258;12.690;2023-03-02T08:49:39;9.50;99.90
19342;DHT22;9807;48.258;12.690;2023-03-02T08:52:05;9.50;99.90
19342;DHT22;9807;48.258;12.690;2023-03-02T08:54:32;9.60;99.90
19342;DHT22;9807;48.258;12.690;2023-03-02T08:57:00;9.60;99.90
19342;DHT22;9807;48.258;12.690;2023-03-02T08:59:26;9.60;99.90
19342;DHT22;9807;48.258;12.690;2023-03-02T09:01:51;9.60;99.90
19342;DHT22;9807;48.258;12.690;2023-03-02T09:04:17;9.60;99.90
19342;DHT22;9807;48.258;12.690;2023-03-02T09:06:44;9.60;99.90
19342;DHT22;9807;48.258;12.690;2023-03-02T09:09:11;9.70;99.90
19342;DHT22;9807;48.258;12.690;2023-03-02T09:11:38;9.80;99.90
19342;DHT22;9807;48.258;12.690;2023-03-02T09:14:04;9.80;99.90
19342;DHT22;9807;48.258;12.690;2023-03-02T09:16:30;9.80;99.90
19342;DHT22;9807;48.258;12.690;2023-03-02T09:18:56;9.70;99.90
19342;DHT22;9807;48.258;12.690;2023-03-02T09:21:23;9.70;99.90
19342;DHT22;9807;48.258;12.690;2023-03-02T09:23:49;9.70;99.90
19342;DHT22;9807;48.258;12.690;2023-03-02T09:26:20;9.70;99.90
19342;DHT22;9807;48.258;12.690;2023-03-02T09:28:46;9.90;99.90
19342;DHT22;9807;48.258;12.690;2023-03-02T09:31:11;9.90;99.90
19342;DHT22;9807;48.258;12.690;2023-03-02T09:33:38;9.90;99.90
19342;DHT22;9807;48.258;12.690;2023-03-02T09:36:08;9.80;99.90
19342;DHT22;9807;48.258;12.690;2023-03-02T09:38:37;9.80;99.90
19342;DHT22;9807;48.258;12.690;2023-03-02T09:52:10;9.90;99.90
19342;DHT22;9807;48.258;12.690;2023-03-02T09:54:40;10.00;99.90
19342;DHT22;9807;48.258;12.690;2023-03-02T09:57:24;10.00;99.90
19342;DHT22;9807;48.258;12.690;2023-03-02T09:59:58;10.10;99.90
19342;DHT22;9807;48.258;12.690;2023-03-02T10:04:56;10.10;99.90
19342;DHT22;9807;48.258;12.690;2023-03-02T10:07:30;10.10;99.90
19342;DHT22;9807;48.258;12.690;2023-03-02T10:13:19;10.30;99.90
19342;DHT22;9807;48.258;12.690;2023-03-02T10:18:46;10.30;99.90
19342;DHT22;9807;48.258;12.690;2023-03-02T10:21:27;10.30;99.90
19342;DHT22;9807;48.258;12.690;2023-03-02T10:26:41;10.40;99.90
19342;DHT22;9807;48.258;12.690;2023-03-02T10:32:22;10.30;99.90
19342;DHT22;9807;48.258;12.690;2023-03-02T10:34:50;10.40;99.90
19342;DHT22;9807;48.258;12.690;2023-03-02T10:37:18;10.40;99.90
19342;DHT22;9807;48.258;12.690;2023-03-02T10:39:46;10.40;99.90
19342;DHT22;9807;48.258;12.690;2023-03-02T10:42:18;10.50;99.90
19342;DHT22;9807;48.258;12.690;2023-03-02T10:44:53;10.50;99.90
19342;DHT22;9807;48.258;12.690;2023-03-02T10:47:25;10.60;99.90
19342;DHT22;9807;48.258;12.690;2023-03-02T10:49:52;10.70;99.90
19342;DHT22;9807;48.258;12.690;2023-03-02T10:52:21;10.80;99.90
19342;DHT22;9807;48.258;12.690;2023-03-02T10:54:47;10.80;99.90
19342;DHT22;9807;48.258;12.690;2023-03-02T10:57:30;10.80;99.90
19342;DHT22;9807;48.258;12.690;2023-03-02T11:02:46;10.80;99.90
19342;DHT22;9807;48.258;12.690;2023-03-02T11:05:31;10.90;99.90
19342;DHT22;9807;48.258;12.690;2023-03-02T11:11:17;10.90;99.90
19342;DHT22;9807;48.258;12.690;2023-03-02T11:13:19;11.00;99.90
19342;DHT22;9807;48.258;12.690;2023-03-02T11:15:50;11.00;99.90
19342;DHT22;9807;48.258;12.690;2023-03-02T11:18:57;11.00;99.90
19342;DHT22;9807;48.258;12.690;2023-03-02T11:24:15;11.10;99.90
19342;DHT22;9807;48.258;12.690;2023-03-02T11:26:48;11.10;99.90
19342;DHT22;9807;48.258;12.690;2023-03-02T11:29:41;11.00;99.90
19342;DHT22;9807;48.258;12.690;2023-03-02T11:34:57;11.10;99.90
19342;DHT22;9807;48.258;12.690;2023-03-02T11:42:52;11.20;99.90
19342;DHT22;9807;48.258;12.690;2023-03-02T11:45:26;11.10;99.90
19342;DHT22;9807;48.258;12.690;2023-03-02T11:48:17;11.20;99.90
19342;DHT22;9807;48.258;12.690;2023-03-02T11:50:57;11.20;99.90
19342;DHT22;9807;48.258;12.690;2023-03-02T11:54:15;11.20;99.90
19342;DHT22;9807;48.258;12.690;2023-03-02T11:56:15;11.20;99.90
19342;DHT22;9807;48.258;12.690;2023-03-02T11:58:41;11.30;99.90
19342;DHT22;9807;48.258;12.690;2023-03-02T12:01:21;11.30;99.90
19342;DHT22;9807;48.258;12.690;2023-03-02T12:03:48;11.30;99.90
19342;DHT22;9807;48.258;12.690;2023-03-02T12:08:45;11.40;99.90
19342;DHT22;9807;48.258;12.690;2023-03-02T12:13:58;11.40;99.90
19342;DHT22;9807;48.258;12.690;2023-03-02T12:16:40;11.50;99.90
19342;DHT22;9807;48.258;12.690;2023-03-02T12:21:58;11.50;99.90
19342;DHT22;9807;48.258;12.690;2023-03-02T12:24:33;11.60;99.90
19342;DHT22;9807;48.258;12.690;2023-03-02T12:29:54;11.70;99.90
19342;DHT22;9807;48.258;12.690;2023-03-02T12:32:26;11.60;99.90
19342;DHT22;9807;48.258;12.690;2023-03-02T12:35:19;11.70;99.90
19342;DHT22;9807;48.258;12.690;2023-03-02T12:43:37;11.90;99.90
19342;DHT22;9807;48.258;12.690;2023-03-02T12:48:57;11.80;99.90
19342;DHT22;9807;48.258;12.690;2023-03-02T12:51:26;11.80;99.90
19342;DHT22;9807;48.258;12.690;2023-03-02T12:54:06;11.80;99.90
19342;DHT22;9807;48.258;12.690;2023-03-02T12:56:39;11.90;99.90
19342;DHT22;9807;48.258;12.690;2023-03-02T12:59:05;11.90;99.90
19342;DHT22;9807;48.258;12.690;2023-03-02T13:01:32;11.90;99.90
19342;DHT22;9807;48.258;12.690;2023-03-02T13:03:58;11.90;99.90
19342;DHT22;9807;48.258;12.690;2023-03-02T13:06:30;11.90;99.90
19342;DHT22;9807;48.258;12.690;2023-03-02T13:08:57;12.00;99.90
19342;DHT22;9807;48.258;12.690;2023-03-02T13:11:31;12.10;99.90
19342;DHT22;9807;48.258;12.690;2023-03-02T13:13:57;12.10;99.90
19342;DHT22;9807;48.258;12.690;2023-03-02T13:16:29;12.20;99.90
19342;DHT22;9807;48.258;12.690;2023-03-02T13:19:02;12.20;99.90
19342;DHT22;9807;48.258;12.690;2023-03-02T13:21:33;12.30;99.90
19342;DHT22;9807;48.258;12.690;2023-03-02T13:24:03;12.20;99.90
19342;DHT22;9807;48.258;12.690;2023-03-02T13:26:38;12.20;99.90
19342;DHT22;9807;48.258;12.690;2023-03-02T13:29:17;12.20;99.90
19342;DHT22;9807;48.258;12.690;2023-03-02T13:31:47;12.20;99.90
19342;DHT22;9807;48.258;12.690;2023-03-02T13:34:33;12.30;99.90
19342;DHT22;9807;48.258;12.690;2023-03-02T13:37:01;12.10;99.90
19342;DHT22;9807;48.258;12.690;2023-03-02T13:39:38;12.10;99.90
19342;DHT22;9807;48.258;12.690;2023-03-02T13:42:04;12.20;99.90
19342;DHT22;9807;48.258;12.690;2023-03-02T13:44:30;12.20;99.90
19342;DHT22;9807;48.258;12.690;2023-03-02T13:46:56;12.30;99.90
19342;DHT22;9807;48.258;12.690;2023-03-02T13:49:31;12.20;99.90
19342;DHT22;9807;48.258;12.690;2023-03-02T13:54:47;12.30;99.90
19342;DHT22;9807;48.258;12.690;2023-03-02T13:57:16;12.30;99.90
19342;DHT22;9807;48.258;12.690;2023-03-02T13:59:46;12.30;99.90
19342;DHT22;9807;48.258;12.690;2023-03-02T14:02:26;12.30;99.90
19342;DHT22;9807;48.258;12.690;2023-03-02T14:04:52;12.30;99.90
19342;DHT22;9807;48.258;12.690;2023-03-02T14:07:19;12.40;99.90
19342;DHT22;9807;48.258;12.690;2023-03-02T14:09:45;12.40;99.90
19342;DHT22;9807;48.258;12.690;2023-03-02T14:12:19;12.40;99.90
19342;DHT22;9807;48.258;12.690;2023-03-02T14:14:50;12.30;99.90
19342;DHT22;9807;48.258;12.690;2023-03-02T14:17:22;12.20;99.90
19342;DHT22;9807;48.258;12.690;2023-03-02T14:19:51;12.20;99.90
19342;DHT22;9807;48.258;12.690;2023-03-02T14:22:25;12.30;99.90
19342;DHT22;9807;48.258;12.690;2023-03-02T14:24:53;12.40;99.90
19342;DHT22;9807;48.258;12.690;2023-03-02T14:27:19;12.40;99.90
19342;DHT22;9807;48.258;12.690;2023-03-02T14:29:46;12.50;99.90
19342;DHT22;9807;48.258;12.690;2023-03-02T14:32:13;12.40;99.90
19342;DHT22;9807;48.258;12.690;2023-03-02T14:34:40;12.40;99.90
19342;DHT22;9807;48.258;12.690;2023-03-02T14:37:13;12.50;99.90
19342;DHT22;9807;48.258;12.690;2023-03-02T14:39:45;12.50;99.90
19342;DHT22;9807;48.258;12.690;2023-03-02T14:42:14;12.50;99.90
19342;DHT22;9807;48.258;12.690;2023-03-02T14:44:41;12.50;99.90
19342;DHT22;9807;48.258;12.690;2023-03-02T14:47:07;12.50;99.90
19342;DHT22;9807;48.258;12.690;2023-03-02T14:49:38;12.50;99.90
19342;DHT22;9807;48.258;12.690;2023-03-02T14:54:45;12.50;99.90
19342;DHT22;9807;48.258;12.690;2023-03-02T14:57:26;12.50;99.90
19342;DHT22;9807;48.258;12.690;2023-03-02T14:59:53;12.60;99.90
19342;DHT22;9807;48.258;12.690;2023-03-02T15:02:20;12.70;99.90
19342;DHT22;9807;48.258;12.690;2023-03-02T15:04:46;12.60;99.90
19342;DHT22;9807;48.258;12.690;2023-03-02T15:07:13;12.60;99.90
19342;DHT22;9807;48.258;12.690;2023-03-02T15:09:41;12.50;99.90
19342;DHT22;9807;48.258;12.690;2023-03-02T15:12:08;12.50;99.90
19342;DHT22;9807;48.258;12.690;2023-03-02T15:14:37;12.50;99.90
19342;DHT22;9807;48.258;12.690;2023-03-02T15:17:03;12.50;99.90
19342;DHT22;9807;48.258;12.690;2023-03-02T15:19:29;12.50;99.90
19342;DHT22;9807;48.258;12.690;2023-03-02T15:21:55;12.60;99.90
19342;DHT22;9807;48.258;12.690;2023-03-02T15:24:21;12.70;99.90
19342;DHT22;9807;48.258;12.690;2023-03-02T15:26:51;12.60;99.90
19342;DHT22;9807;48.258;12.690;2023-03-02T15:29:21;12.60;99.90
19342;DHT22;9807;48.258;12.690;2023-03-02T15:31:50;12.60;99.90
19342;DHT22;9807;48.258;12.690;2023-03-02T15:34:16;12.60;99.90
19342;DHT22;9807;48.258;12.690;2023-03-02T15:36:41;12.60;99.90
19342;DHT22;9807;48.258;12.690;2023-03-02T15:39:11;12.50;99.90
19342;DHT22;9807;48.258;12.690;2023-03-02T15:41:38;12.60;99.90
19342;DHT22;9807;48.258;12.690;2023-03-02T15:44:06;12.50;99.90
19342;DHT22;9807;48.258;12.690;2023-03-02T15:46:32;12.50;99.90
19342;DHT22;9807;48.258;12.690;2023-03-02T15:48:57;12.50;99.90
19342;DHT22;9807;48.258;12.690;2023-03-02T15:51:26;12.50;99.90
19342;DHT22;9807;48.258;12.690;2023-03-02T15:53:52;12.50;99.90
19342;DHT22;9807;48.258;12.690;2023-03-02T15:56:18;12.40;99.90
19342;DHT22;9807;48.258;12.690;2023-03-02T15:58:47;12.30;99.90
19342;DHT22;9807;48.258;12.690;2023-03-02T16:01:14;12.40;99.90
19342;DHT22;9807;48.258;12.690;2023-03-02T16:03:41;12.40;99.90
19342;DHT22;9807;48.258;12.690;2023-03-02T16:06:07;12.40;99.90
19342;DHT22;9807;48.258;12.690;2023-03-02T16:08:34;12.30;99.90
19342;DHT22;9807;48.258;12.690;2023-03-02T16:11:06;12.30;99.90
19342;DHT22;9807;48.258;12.690;2023-03-02T16:13:33;12.30;99.90
19342;DHT22;9807;48.258;12.690;2023-03-02T16:16:03;12.20;99.90
19342;DHT22;9807;48.258;12.690;2023-03-02T16:18:29;12.00;99.90
19342;DHT22;9807;48.258;12.690;2023-03-02T16:20:55;12.00;99.90
19342;DHT22;9807;48.258;12.690;2023-03-02T16:23:21;12.10;99.90
19342;DHT22;9807;48.258;12.690;2023-03-02T16:25:47;12.10;99.90
19342;DHT22;9807;48.258;12.690;2023-03-02T16:28:15;12.20;99.90
19342;DHT22;9807;48.258;12.690;2023-03-02T16:30:42;12.20;99.90
19342;DHT22;9807;48.258;12.690;2023-03-02T16:33:16;12.20;99.90
19342;DHT22;9807;48.258;12.690;2023-03-02T16:35:42;12.20;99.90
19342;DHT22;9807;48.258;12.690;2023-03-02T16:38:08;12.20;99.90
19342;DHT22;9807;48.258;12.690;2023-03-02T16:40:36;12.20;99.90
19342;DHT22;9807;48.258;12.690;2023-03-02T16:43:05;12.10;99.90
19342;DHT22;9807;48.258;12.690;2023-03-02T16:45:38;12.10;99.90
19342;DHT22;9807;48.258;12.690;2023-03-02T16:48:04;12.00;99.90
19342;DHT22;9807;48.258;12.690;2023-03-02T16:50:30;11.90;99.90
19342;DHT22;9807;48.258;12.690;2023-03-02T16:52:57;11.90;99.90
19342;DHT22;9807;48.258;12.690;2023-03-02T16:55:23;11.80;99.90
19342;DHT22;9807;48.258;12.690;2023-03-02T16:57:49;11.80;99.90
19342;DHT22;9807;48.258;12.690;2023-03-02T17:00:17;11.80;99.90
19342;DHT22;9807;48.258;12.690;2023-03-02T17:02:43;11.70;99.90
19342;DHT22;9807;48.258;12.690;2023-03-02T17:05:11;11.70;99.90
19342;DHT22;9807;48.258;12.690;2023-03-02T17:07:37;11.70;99.90